createdAt,value
2018-11-28T00:00:22.088Z,-0.26
2018-11-28T00:05:19.500Z,-0.23
2018-11-28T00:10:16.916Z,-0.31
2018-11-28T00:15:15.132Z,-0.31
2018-11-28T00:20:14.600Z,-0.28
2018-11-28T00:25:12.706Z,-0.29
2018-11-28T00:30:15.992Z,-0.32
2018-11-28T00:35:15.391Z,-0.32
2018-11-28T00:40:13.720Z,-0.29
2018-11-28T00:45:14.897Z,-0.28
2018-11-28T00:50:13.362Z,-0.27
2018-11-28T00:55:11.804Z,-0.20
2018-11-28T01:00:13.045Z,-0.23
2018-11-28T01:05:11.398Z,-0.23
2018-11-28T01:10:11.953Z,-0.19
2018-11-28T01:15:11.457Z,-0.19
2018-11-28T01:20:10.789Z,-0.17
2018-11-28T01:25:12.368Z,-0.13
2018-11-28T01:30:12.629Z,-0.14
2018-11-28T01:35:10.860Z,-0.08
2018-11-28T01:40:15.221Z,-0.07
2018-11-28T01:45:13.612Z,-0.02
2018-11-28T01:50:14.772Z,0.01
2018-11-28T01:55:13.476Z,0.01
2018-11-28T02:00:15.926Z,0.07
2018-11-28T02:05:13.350Z,0.08
2018-11-28T02:10:11.818Z,0.10
2018-11-28T02:15:12.377Z,0.11
2018-11-28T02:20:10.977Z,0.20
2018-11-28T02:25:09.846Z,0.23
2018-11-28T02:30:11.119Z,0.24
2018-11-28T02:35:10.480Z,0.20
2018-11-28T02:40:09.887Z,0.30
2018-11-28T02:45:11.806Z,0.34
2018-11-28T02:50:09.541Z,0.37
2018-11-28T02:55:08.617Z,0.37
2018-11-28T03:00:12.661Z,0.43
2018-11-28T03:05:11.113Z,0.42
2018-11-28T03:10:13.869Z,0.50
2018-11-28T03:15:14.378Z,0.51
2018-11-28T03:20:11.826Z,0.55
2018-11-28T03:25:10.342Z,0.57
2018-11-28T03:30:13.521Z,0.55
2018-11-28T03:35:12.195Z,0.58
2018-11-28T03:40:09.656Z,0.61
2018-11-28T03:45:14.218Z,0.61
2018-11-28T03:50:13.705Z,0.58
2018-11-28T03:55:12.993Z,0.64
2018-11-28T04:00:12.951Z,0.72
2018-11-28T04:05:10.878Z,0.73
2018-11-28T04:10:09.497Z,0.75
2018-11-28T04:15:15.759Z,0.77
2018-11-28T04:20:14.149Z,0.84
2018-11-28T04:25:12.377Z,0.83
2018-11-28T04:30:15.163Z,0.91
2018-11-28T04:35:13.486Z,0.93
2018-11-28T04:40:25.646Z,0.98
2018-11-28T04:45:24.016Z,1.00
2018-11-28T04:50:21.459Z,1.04
2018-11-28T04:55:19.635Z,1.08
2018-11-28T05:00:26.423Z,1.09
2018-11-28T05:05:23.900Z,1.12
2018-11-28T05:10:26.916Z,1.18
2018-11-28T05:15:25.550Z,1.12
2018-11-28T05:20:24.616Z,1.14
2018-11-28T05:25:22.849Z,1.16
2018-11-28T05:30:21.808Z,1.18
2018-11-28T05:35:25.096Z,1.20
2018-11-28T05:40:23.514Z,1.19
2018-11-28T05:45:20.933Z,1.19
2018-11-28T05:50:22.052Z,1.13
2018-11-28T05:55:20.746Z,1.14
2018-11-28T06:00:26.653Z,1.13
2018-11-28T06:05:24.201Z,1.20
2018-11-28T06:10:21.685Z,1.20
2018-11-28T06:15:19.154Z,1.21
2018-11-28T06:20:16.573Z,1.23
2018-11-28T06:25:16.718Z,1.25
2018-11-28T06:30:18.494Z,1.26
2018-11-28T06:35:15.963Z,1.23
2018-11-28T06:40:17.136Z,1.22
2018-11-28T06:45:16.756Z,1.26
2018-11-28T06:50:18.049Z,1.32
2018-11-28T06:55:17.221Z,1.35
2018-11-28T07:00:16.469Z,1.39
2018-11-28T07:05:13.957Z,1.43
2018-11-28T07:10:17.385Z,1.44
2018-11-28T07:15:15.891Z,1.50
2018-11-28T07:20:14.430Z,1.63
2018-11-28T07:25:14.703Z,1.70
2018-11-28T07:30:17.434Z,1.74
2018-11-28T07:35:14.932Z,1.80
2018-11-28T07:40:14.501Z,1.84
2018-11-28T07:45:12.278Z,1.95
2018-11-28T07:50:10.114Z,2.00
2018-11-28T07:55:10.969Z,2.07
2018-11-28T08:00:12.832Z,2.20
2018-11-28T08:05:11.159Z,2.25
2018-11-28T08:10:10.383Z,2.35
2018-11-28T08:15:08.205Z,2.45
2018-11-28T08:20:06.041Z,2.60
2018-11-28T08:25:03.789Z,2.64
2018-11-28T08:30:12.965Z,2.79
2018-11-28T08:35:11.274Z,2.87
2018-11-28T08:40:27.111Z,2.90
2018-11-28T08:45:24.664Z,3.01
2018-11-28T08:50:25.570Z,3.08
2018-11-28T08:55:21.824Z,3.11
2018-11-28T09:00:22.231Z,3.15
2018-11-28T09:05:19.723Z,3.33
2018-11-28T09:10:17.982Z,3.39
2018-11-28T09:15:20.531Z,3.53
2018-11-28T09:20:17.972Z,3.71
2018-11-28T09:25:16.269Z,3.85
2018-11-28T09:30:15.816Z,3.99
2018-11-28T09:35:14.040Z,4.17
2018-11-28T09:40:13.760Z,4.29
2018-11-28T09:45:12.566Z,4.43
2018-11-28T09:50:14.089Z,4.41
2018-11-28T09:55:14.054Z,4.55
2018-11-28T10:00:19.406Z,4.64
2018-11-28T10:05:19.763Z,4.70
2018-11-28T10:10:17.286Z,4.85
2018-11-28T10:15:16.715Z,4.89
2018-11-28T10:20:14.915Z,5.04
2018-11-28T10:25:15.135Z,5.30
2018-11-28T10:30:16.951Z,5.50
2018-11-28T10:35:14.572Z,5.53
2018-11-28T10:40:17.904Z,5.61
2018-11-28T10:45:17.457Z,5.73
2018-11-28T10:50:15.269Z,5.96
2018-11-28T10:55:16.598Z,6.12
2018-11-28T11:00:38.648Z,6.16
2018-11-28T11:05:41.662Z,6.21
2018-11-28T11:10:44.671Z,6.21
2018-11-28T11:15:42.145Z,6.15
2018-11-28T11:20:39.612Z,6.44
2018-11-28T11:25:37.053Z,6.50
2018-11-28T11:30:34.643Z,6.34
2018-11-28T11:35:32.253Z,6.24
2018-11-28T11:40:29.674Z,6.27
2018-11-28T11:45:27.261Z,6.36
2018-11-28T11:50:24.795Z,6.35
2018-11-28T11:55:22.227Z,6.30
2018-11-28T12:00:21.112Z,6.42
2018-11-28T12:05:18.694Z,6.59
2018-11-28T12:10:16.083Z,6.59
2018-11-28T12:15:15.721Z,6.55
2018-11-28T12:20:19.682Z,6.57
2018-11-28T12:25:17.088Z,6.77
2018-11-28T12:30:16.131Z,6.82
2018-11-28T12:35:15.269Z,6.74
2018-11-28T12:40:14.839Z,6.73
2018-11-28T12:45:14.260Z,6.70
2018-11-28T12:50:15.133Z,6.52
2018-11-28T12:55:12.614Z,6.49
2018-11-28T13:00:15.753Z,6.35
2018-11-28T13:05:14.369Z,6.22
2018-11-28T13:10:19.781Z,6.09
2018-11-28T13:15:18.232Z,6.03
2018-11-28T13:20:16.632Z,5.97
2018-11-28T13:25:16.131Z,6.02
2018-11-28T13:30:17.554Z,6.00
2018-11-28T13:35:16.983Z,5.98
2018-11-28T13:40:16.806Z,5.99
2018-11-28T13:45:19.373Z,5.92
2018-11-28T13:50:16.819Z,5.91
2018-11-28T13:55:39.791Z,5.92
2018-11-28T14:00:32.197Z,5.81
2018-11-28T14:05:29.642Z,5.92
2018-11-28T14:10:27.083Z,5.95
2018-11-28T14:15:24.524Z,5.95
2018-11-28T14:20:21.997Z,5.84
2018-11-28T14:25:19.418Z,5.82
2018-11-28T14:30:20.873Z,5.88
2018-11-28T14:35:18.717Z,5.88
2018-11-28T14:40:17.127Z,5.83
2018-11-28T14:45:15.663Z,5.80
2018-11-28T14:50:15.153Z,5.81
2018-11-28T14:55:16.820Z,5.86
2018-11-28T15:00:19.097Z,5.83
2018-11-28T15:05:36.002Z,5.75
2018-11-28T15:11:39.521Z,5.67
2018-11-28T15:16:37.009Z,5.62
2018-11-28T15:21:34.423Z,5.65
2018-11-28T15:26:31.816Z,5.65
2018-11-28T15:31:29.264Z,5.67
2018-11-28T15:36:26.789Z,5.63
2018-11-28T15:41:24.200Z,5.75
2018-11-28T15:46:21.591Z,5.72
2018-11-28T15:51:18.964Z,5.74
2018-11-28T15:56:16.368Z,5.81
2018-11-28T16:01:13.861Z,5.73
2018-11-28T16:06:11.257Z,5.85
2018-11-28T16:11:11.077Z,5.88
2018-11-28T16:16:08.585Z,5.96
2018-11-28T16:21:06.134Z,5.97
2018-11-28T16:26:03.573Z,5.87
2018-11-28T16:31:01.086Z,5.97
2018-11-28T16:35:58.606Z,5.96
2018-11-28T16:40:56.042Z,5.99
2018-11-28T16:45:53.452Z,5.96
2018-11-28T16:50:50.896Z,5.93
2018-11-28T16:55:48.297Z,5.90
2018-11-28T17:00:45.721Z,5.80
2018-11-28T17:05:43.123Z,5.72
2018-11-28T17:10:40.541Z,5.68
2018-11-28T17:15:37.961Z,5.73
2018-11-28T17:20:36.842Z,5.74
2018-11-28T17:25:34.237Z,5.82
2018-11-28T17:30:31.664Z,5.80
2018-11-28T17:35:29.113Z,5.86
2018-11-28T17:40:27.641Z,5.88
2018-11-28T17:45:25.529Z,5.87
2018-11-28T17:50:23.873Z,5.93
2018-11-28T17:55:21.255Z,5.89
2018-11-28T18:00:20.445Z,5.87
2018-11-28T18:05:17.909Z,5.90
2018-11-28T18:10:16.752Z,5.99
2018-11-28T18:15:14.151Z,5.91
2018-11-28T18:20:11.552Z,5.90
2018-11-28T18:25:13.082Z,5.94
2018-11-28T18:30:13.793Z,5.92
2018-11-28T18:35:11.803Z,5.91
2018-11-28T18:40:11.116Z,5.97
2018-11-28T18:45:26.524Z,6.00
2018-11-28T18:50:23.952Z,6.02
2018-11-28T18:55:21.465Z,6.00
2018-11-28T19:00:21.811Z,5.97
2018-11-28T19:05:19.272Z,5.90
2018-11-28T19:10:17.848Z,5.90
2018-11-28T19:15:29.884Z,5.94
2018-11-28T19:20:27.298Z,5.86
2018-11-28T19:25:27.369Z,5.74
2018-11-28T19:30:30.854Z,5.73
2018-11-28T19:35:24.909Z,5.68
2018-11-28T19:40:29.746Z,5.58
2018-11-28T19:45:35.972Z,5.59
2018-11-28T19:50:34.477Z,5.63
2018-11-28T19:55:34.620Z,5.63
2018-11-28T20:00:35.685Z,5.57
2018-11-28T20:05:39.789Z,5.68
2018-11-28T20:10:41.032Z,5.65
2018-11-28T20:15:43.722Z,5.62
2018-11-28T20:20:46.423Z,5.58
2018-11-28T20:25:50.927Z,5.66
2018-11-28T20:30:51.169Z,5.66
2018-11-28T20:35:49.306Z,5.76
2018-11-28T20:40:46.776Z,5.81
2018-11-28T20:45:44.237Z,5.79
2018-11-28T20:50:41.695Z,5.77
2018-11-28T20:55:39.085Z,5.75
2018-11-28T21:00:36.622Z,5.72
2018-11-28T21:05:34.105Z,5.75
2018-11-28T21:10:38.242Z,5.73
2018-11-28T21:15:35.720Z,5.79
2018-11-28T21:20:33.154Z,5.83
2018-11-28T21:25:30.548Z,5.80
2018-11-28T21:30:28.033Z,5.83
2018-11-28T21:35:27.780Z,5.81
2018-11-28T21:40:25.338Z,5.84
2018-11-28T21:45:23.536Z,5.96
2018-11-28T21:50:20.924Z,5.94
2018-11-28T21:55:19.389Z,5.97
2018-11-28T22:00:23.129Z,5.98
2018-11-28T22:05:20.708Z,5.95
2018-11-28T22:10:24.027Z,5.93
2018-11-28T22:15:21.443Z,5.96
2018-11-28T22:20:18.918Z,5.94
2018-11-28T22:25:19.275Z,5.91
2018-11-28T22:30:19.004Z,5.95
2018-11-28T22:35:16.458Z,5.97
2018-11-28T22:40:15.408Z,5.91
2018-11-28T22:45:14.273Z,5.94
2018-11-28T22:50:12.415Z,5.86
2018-11-28T22:55:10.869Z,5.92
2018-11-28T23:00:11.974Z,5.95
2018-11-28T23:05:09.417Z,5.88
2018-11-28T23:10:06.856Z,5.98
2018-11-28T23:15:04.857Z,6.00
2018-11-28T23:20:02.253Z,5.98
2018-11-28T23:24:59.627Z,6.06
2018-11-28T23:30:05.713Z,6.13
2018-11-28T23:35:03.353Z,6.14
2018-11-28T23:40:00.769Z,6.14
2018-11-28T23:44:58.153Z,6.15
2018-11-28T23:49:55.734Z,6.10
2018-11-28T23:54:53.152Z,6.08
2018-11-28T23:59:51.826Z,6.07
